Aérodrome :
LOGIN :

S'inscrire | Disclaimer

   EN    FR    IT 

 










Légende :    VFR   VFR Marginal   IFR   IFR Intensif   IFR Très Intensif
Visi : 
Plafond : 
>= 8 km
>= 3000ft
5 à 8 km
1000 à 3000 ft
1500m à 5 km
500 à 1000 ft
800 à 1500m
200 à 500 ft
< 800m
< 200 ft
Symboles :   Orages  Brouillard  Fortes neiges  Fortes précipitations  Vent > 20 kt
SIGMETs :   Divers  Orages  Givrage  Turbulence  Onde Orograph.  Cendres Volcan.







- Altitude de l'aérodrome : 821 ft
- Code IATA : LYS
- Voir les cartes d'approche


LFLL - Lyon St Exupéry / Satolas

DERNIER METAR :
  • 231200Z 13007KT 100V180 9999 FEW062 FEW083TCU SCT100 BKN210 17/06 Q1008 NOSIG

METARs EXPIRÉS :
  • 231130Z 12010KT 090V160 9999 FEW062 FEW083TCU SCT100 BKN210 17/06 Q1008 NOSIG
  • 231100Z 12008KT 090V150 9999 FEW066 FEW100TCU SCT100 BKN210 16/06 Q1008 NOSIG
  • 231030Z 10010KT CAVOK 15/06 Q1008 NOSIG
  • 231000Z 10010KT 070V130 CAVOK 15/06 Q1008 NOSIG
  • 230930Z 12011KT CAVOK 14/06 Q1008 NOSIG
  • 230900Z 12012KT CAVOK 13/06 Q1008 NOSIG

TAF TAF LFLL
Valide du 23 à 12h jusqu'au 24 à 18h UTC


231100Z 2312/2418 14006KT 9999 SCT040TCU
TEMPO 2312/2320 20015G30KT 4500 SHRA FEW035CB BKN040TCU
PROB40
TEMPO 2313/2319 20020G40KT 2500 TSRA BKN030CB
PROB30
TEMPO 2313/2318 TSGR
BECMG 2320/2322 36010KT
TEMPO 2322/2410 -RA BKN014 OVC040
PROB30
TEMPO 2402/2408 BKN009
BECMG 2408/2410 BKN020
PROB40
TEMPO 2413/2418 SHRA
Pas de NOTAMs connus pour ce terrain.
3 SIGMETs publiés pour la FIR Marseille (LFMM) :
 
Orages noyés dans la masse
LFMM SIGMET 9 VALID 231140/231300 LFPW
LFMM MARSEILLE FIR/UIR EMBD TS OBS AT 1140Z WI N4300 E00515 - N4330 E00515 - N4330 E00645 - N4245 E00645 TOP FL280 STNR NC=
Turbulence forte
LFMM SIGMET 7 VALID 231000/231300 LFPW
LFMM MARSEILLE FIR/UIR SEV TURB FCST WI N4345 E00245 - N4515 E00245 - N4600 E00345 - N4515 E00545 - N4345 E00530 SFC/FL060 STNR NC=
Orages noyés dans la masse
LFMM SIGMET 10 VALID 231200/231400 LFPW
LFMM MARSEILLE FIR/UIR EMBD TS OBS WI N4330 E00245 - N4600 E00300 - N4615 E00430 - N4415 E00445 - N4230 E00315 TOP FL320 STNR NC=



MET'MAP, la Météo Aéronautique d'un coup d'oeil ! - Copyright ORBIFLY Décembre 2007 - Disclaimer

ORBIFLY MET'MAP TEAM :

Programmation & Développement : Alexandra Zaïnal
Conception & Développement : Baudouin d'Aumeries
Co-Programmation & Développement : Marc-Olivier Méhu
Soutien technique & logistique : Manuel Goepfert

Contact : metmap@orbifly.com




SOURCES & CREDITS :

   NOAA